Time;durP1;ratioP1;P1;durP2;ratioP2;P2;SDS_P1;SDS_P2;PMS_P1;PMS_P2;Temp;Humidity;BMP_temperature;BMP_pressure;BME280_temperature;BME280_humidity;BME280_pressure;Samples;Min_cycle;Max_cycle;Signal;HPM_P1;HPM_P2
2022/10/22 13:21:00;;;;;;;7.05;3.22;;;;;;;;;;6122488;23;20028;-79
2022/10/22 13:23:28;;;;;;;7.97;2.97;;;;;;;;;;6147655;23;20021;-78
2022/10/22 13:26:01;;;;;;;4.88;1.90;;;;;;;;;;6147327;23;20014;-79
2022/10/22 13:28:27;;;;;;;6.47;2.38;;;;;;;;;;6123752;23;20407;-78
2022/10/22 13:30:58;;;;;;;5.38;2.58;;;;;;;;;;6148378;23;20518;-79
2022/10/22 13:33:39;;;;;;;9.15;2.33;;;;;;;;;;6150760;23;20049;-79
2022/10/22 13:36:05;;;;;;;6.70;2.10;;;;;;;;;;6148810;23;20017;-78
2022/10/22 13:38:31;;;;;;;7.43;2.42;;;;;;;;;;6149244;23;20017;-78
2022/10/22 13:40:58;;;;;;;9.57;2.95;;;;;;;;;;6124373;23;20079;-79
2022/10/22 13:43:24;;;;;;;7.25;2.40;;;;;;;;;;6149006;23;20020;-79
2022/10/22 13:46:00;;;;;;;6.90;2.53;;;;;;;;;;6148396;23;20013;-79
2022/10/22 13:48:27;;;;;;;7.57;2.97;;;;;;;;;;6148859;23;20024;-81
2022/10/22 13:50:54;;;;;;;9.15;2.17;;;;;;;;;;6125189;23;20420;-86
2022/10/22 13:53:22;;;;;;;6.80;2.05;;;;;;;;;;6102476;23;20016;-81
2022/10/22 13:55:49;;;;;;;11.68;3.25;;;;;;;;;;6152099;23;20009;-84
2022/10/22 13:58:24;;;;;;;3.90;1.50;;;;;;;;;;6151601;23;20324;-85
2022/10/22 14:00:55;;;;;;;6.60;1.88;;;;;;;;;;6127582;23;20041;-86
2022/10/22 14:03:24;;;;;;;5.97;1.30;;;;;;;;;;6153308;23;20013;-87
2022/10/22 14:05:50;;;;;;;7.80;2.55;;;;;;;;;;6128962;23;20151;-87
2022/10/22 14:08:18;;;;;;;6.78;2.40;;;;;;;;;;6128677;23;20475;-87
2022/10/22 14:10:44;;;;;;;14.27;5.20;;;;;;;;;;6104256;23;20032;-85
2022/10/22 14:13:11;;;;;;;6.65;2.78;;;;;;;;;;6153366;23;20013;-88
2022/10/22 14:15:37;;;;;;;12.25;3.58;;;;;;;;;;6152525;23;20017;-88
2022/10/22 14:18:04;;;;;;;7.18;1.65;;;;;;;;;;6151662;23;20050;-86
2022/10/22 14:20:31;;;;;;;4.93;1.45;;;;;;;;;;6151041;23;20025;-86
2022/10/22 14:23:01;;;;;;;6.78;1.55;;;;;;;;;;6152059;23;20025;-86
2022/10/22 14:25:30;;;;;;;2.47;1.42;;;;;;;;;;6126418;23;20017;-85
2022/10/22 14:27:56;;;;;;;3.33;1.25;;;;;;;;;;6102443;23;20605;-84
2022/10/22 14:30:25;;;;;;;7.22;1.67;;;;;;;;;;6151180;23;20048;-81
2022/10/22 14:32:52;;;;;;;4.70;1.77;;;;;;;;;;6126045;23;20021;-82
2022/10/22 14:35:19;;;;;;;4.88;1.77;;;;;;;;;;6150980;23;20080;-81
2022/10/22 14:37:45;;;;;;;6.38;1.65;;;;;;;;;;6151019;23;20440;-83
2022/10/22 14:40:16;;;;;;;4.93;1.67;;;;;;;;;;6151467;23;20296;-83
2022/10/22 14:42:43;;;;;;;4.72;1.75;;;;;;;;;;6127202;23;20009;-82
2022/10/22 14:45:13;;;;;;;5.22;2.53;;;;;;;;;;6152905;23;20345;-84
2022/10/22 14:47:39;;;;;;;7.50;2.45;;;;;;;;;;6151983;23;20018;-81
2022/10/22 14:50:06;;;;;;;18.85;7.63;;;;;;;;;;6128273;23;20415;-81
2022/10/22 14:52:33;;;;;;;14.05;5.05;;;;;;;;;;6153018;23;20100;-81
2022/10/22 14:54:59;;;;;;;8.82;2.63;;;;;;;;;;6152158;23;20096;-82
2022/10/22 14:57:25;;;;;;;7.55;2.40;;;;;;;;;;6150994;23;20019;-81
2022/10/22 14:59:53;;;;;;;8.90;3.17;;;;;;;;;;6150395;23;20017;-81
2022/10/22 15:02:20;;;;;;;9.82;3.08;;;;;;;;;;6150511;23;20053;-81
2022/10/22 15:04:46;;;;;;;8.20;3.10;;;;;;;;;;6102174;23;20010;-82
2022/10/22 15:07:12;;;;;;;9.23;3.25;;;;;;;;;;6150291;23;20028;-81
2022/10/22 15:09:39;;;;;;;17.20;3.53;;;;;;;;;;6148433;23;20088;-81
2022/10/22 15:12:05;;;;;;;14.00;3.95;;;;;;;;;;6147288;23;20022;-80
2022/10/22 15:14:31;;;;;;;9.52;3.35;;;;;;;;;;6123488;23;20017;-81
2022/10/22 15:16:58;;;;;;;12.52;2.95;;;;;;;;;;6149035;23;20017;-81
2022/10/22 15:19:24;;;;;;;9.27;3.08;;;;;;;;;;6125746;23;20495;-81
2022/10/22 15:21:50;;;;;;;13.18;3.38;;;;;;;;;;6150308;23;20022;-81
2022/10/22 15:24:16;;;;;;;13.80;3.08;;;;;;;;;;6102748;23;20100;-80
2022/10/22 15:26:42;;;;;;;10.35;3.78;;;;;;;;;;6152141;23;20021;-82
2022/10/22 15:29:08;;;;;;;10.65;3.22;;;;;;;;;;6152684;23;20025;-80
2022/10/22 15:31:48;;;;;;;9.05;3.47;;;;;;;;;;6127348;23;20044;-79
2022/10/22 15:34:18;;;;;;;15.85;4.80;;;;;;;;;;6102060;23;20026;-80
2022/10/22 15:36:44;;;;;;;8.63;2.47;;;;;;;;;;6149691;23;20010;-82
2022/10/22 15:39:11;;;;;;;7.57;2.72;;;;;;;;;;6099461;23;20344;-81
2022/10/22 15:41:37;;;;;;;12.68;3.97;;;;;;;;;;6123457;23;20010;-81
2022/10/22 15:44:04;;;;;;;10.07;2.90;;;;;;;;;;6101091;23;20024;-81
2022/10/22 15:46:31;;;;;;;13.73;4.22;;;;;;;;;;6126328;23;20602;-80
2022/10/22 15:48:57;;;;;;;8.23;4.03;;;;;;;;;;6124570;23;20018;-80
2022/10/22 15:51:24;;;;;;;11.95;4.25;;;;;;;;;;6122971;23;20033;-79
2022/10/22 15:53:51;;;;;;;25.02;4.22;;;;;;;;;;6149273;23;20316;-81
2022/10/22 15:56:18;;;;;;;8.70;3.33;;;;;;;;;;6150787;23;20028;-80
2022/10/22 15:58:44;;;;;;;13.75;4.38;;;;;;;;;;6150715;23;20016;-80
2022/10/22 16:01:11;;;;;;;12.23;5.05;;;;;;;;;;6150101;23;20092;-80
2022/10/22 16:03:38;;;;;;;14.98;5.63;;;;;;;;;;6149364;23;20088;-81
2022/10/22 16:06:05;;;;;;;13.38;6.00;;;;;;;;;;6126219;23;20037;-80
2022/10/22 16:08:31;;;;;;;14.02;4.28;;;;;;;;;;6150202;23;20020;-80
2022/10/22 16:10:57;;;;;;;12.02;3.42;;;;;;;;;;6126127;23;20132;-80
2022/10/22 16:13:24;;;;;;;11.77;3.85;;;;;;;;;;6125683;23;20048;-81
2022/10/22 16:15:51;;;;;;;11.18;4.10;;;;;;;;;;6151801;23;20072;-80
2022/10/22 16:18:17;;;;;;;15.32;4.13;;;;;;;;;;6151349;23;20009;-80
2022/10/22 16:20:43;;;;;;;15.40;5.05;;;;;;;;;;6151674;23;20092;-80
2022/10/22 16:23:09;;;;;;;16.55;4.15;;;;;;;;;;6151901;23;20085;-80
2022/10/22 16:25:42;;;;;;;14.60;3.95;;;;;;;;;;6151852;23;20045;-80
2022/10/22 16:28:09;;;;;;;10.27;4.43;;;;;;;;;;6102923;23;20017;-81
2022/10/22 16:30:36;;;;;;;18.45;5.03;;;;;;;;;;6151825;23;20063;-81
2022/10/22 16:33:03;;;;;;;14.80;3.90;;;;;;;;;;6127660;23;20455;-81
2022/10/22 16:35:29;;;;;;;11.38;5.53;;;;;;;;;;6151927;23;20018;-81
2022/10/22 16:37:55;;;;;;;15.77;4.60;;;;;;;;;;6152002;23;20324;-80
2022/10/22 16:40:22;;;;;;;11.90;3.35;;;;;;;;;;6152011;23;20025;-80
2022/10/22 16:42:48;;;;;;;12.82;3.90;;;;;;;;;;6126882;23;20013;-81
2022/10/22 16:45:14;;;;;;;13.63;4.82;;;;;;;;;;6126814;23;20022;-80
2022/10/22 16:47:41;;;;;;;10.73;4.03;;;;;;;;;;6149578;23;20474;-80
2022/10/22 16:50:10;;;;;;;12.85;4.10;;;;;;;;;;6127043;23;20096;-80
2022/10/22 16:52:36;;;;;;;6.70;4.00;;;;;;;;;;6150640;23;20096;-80
2022/10/22 16:55:03;;;;;;;13.80;4.32;;;;;;;;;;6150116;23;20018;-81
2022/10/22 16:57:30;;;;;;;10.98;5.05;;;;;;;;;;6150598;23;20068;-80
2022/10/22 16:59:57;;;;;;;13.60;5.15;;;;;;;;;;6150993;23;20024;-81
2022/10/22 17:02:23;;;;;;;11.57;4.70;;;;;;;;;;6151368;23;20518;-80
2022/10/22 17:04:49;;;;;;;12.68;4.43;;;;;;;;;;6151009;23;20044;-81
2022/10/22 17:07:15;;;;;;;20.30;8.25;;;;;;;;;;6080105;23;20347;-81
2022/10/22 17:09:42;;;;;;;18.70;5.05;;;;;;;;;;6152598;23;20514;-82
2022/10/22 17:12:08;;;;;;;8.82;3.03;;;;;;;;;;6151793;23;20014;-81
2022/10/22 17:14:34;;;;;;;15.98;5.10;;;;;;;;;;6151626;23;20057;-82
2022/10/22 17:17:00;;;;;;;12.63;3.38;;;;;;;;;;6127245;23;20391;-81
2022/10/22 17:19:26;;;;;;;17.27;5.90;;;;;;;;;;6153061;23;20037;-81
2022/10/22 17:21:53;;;;;;;12.85;4.53;;;;;;;;;;6153365;23;20032;-81
2022/10/22 17:24:19;;;;;;;18.63;4.50;;;;;;;;;;6151345;23;20448;-80
2022/10/22 17:26:46;;;;;;;16.30;4.80;;;;;;;;;;6150733;23;20048;-81
2022/10/22 17:29:12;;;;;;;11.88;4.10;;;;;;;;;;6126608;23;20017;-81
2022/10/22 17:31:39;;;;;;;14.43;4.88;;;;;;;;;;6150932;23;20029;-81
2022/10/22 17:34:06;;;;;;;13.15;4.05;;;;;;;;;;6122903;23;20351;-81
2022/10/22 17:36:33;;;;;;;17.85;5.75;;;;;;;;;;6147176;23;20060;-81
2022/10/22 17:39:00;;;;;;;12.85;4.07;;;;;;;;;;6122274;23;20020;-81
2022/10/22 17:41:27;;;;;;;15.05;4.55;;;;;;;;;;6125113;23;20014;-81
2022/10/22 17:43:55;;;;;;;10.50;5.80;;;;;;;;;;6150818;23;20088;-80
2022/10/22 17:46:22;;;;;;;10.20;4.15;;;;;;;;;;6126920;23;20040;-81
2022/10/22 17:48:49;;;;;;;15.95;5.75;;;;;;;;;;6151481;23;20022;-80
2022/10/22 17:51:16;;;;;;;12.75;5.95;;;;;;;;;;6150518;23;20794;-80
2022/10/22 17:53:44;;;;;;;8.75;3.97;;;;;;;;;;6150037;23;20017;-81
2022/10/22 17:56:12;;;;;;;12.98;4.47;;;;;;;;;;6150332;23;20060;-81
2022/10/22 17:58:38;;;;;;;15.32;4.68;;;;;;;;;;6126111;23;20020;-80
2022/10/22 18:01:04;;;;;;;12.82;4.30;;;;;;;;;;6147603;23;20025;-80
2022/10/22 18:03:30;;;;;;;13.07;4.43;;;;;;;;;;6123609;23;20010;-81
2022/10/22 18:06:04;;;;;;;14.25;4.93;;;;;;;;;;6148595;23;20016;-80
2022/10/22 18:08:30;;;;;;;10.57;4.38;;;;;;;;;;6149543;23;20127;-80
2022/10/22 18:10:56;;;;;;;10.63;3.83;;;;;;;;;;6151445;23;20009;-80
2022/10/22 18:13:22;;;;;;;18.98;4.88;;;;;;;;;;6103134;23;20006;-81
2022/10/22 18:15:55;;;;;;;12.20;3.47;;;;;;;;;;6126782;23;20021;-81
2022/10/22 18:18:21;;;;;;;;;;;;;;;;;;6152236;23;20049;-80
2022/10/22 18:20:51;;;;;;;17.67;4.72;;;;;;;;;;6127665;23;20235;-80
2022/10/22 18:23:17;;;;;;;16.17;5.13;;;;;;;;;;6152539;23;20017;-81
2022/10/22 18:25:43;;;;;;;11.13;4.50;;;;;;;;;;6128289;23;20049;-81
2022/10/22 18:28:13;;;;;;;13.27;5.47;;;;;;;;;;6152479;23;20017;-81
2022/10/22 18:30:42;;;;;;;19.38;5.53;;;;;;;;;;6152678;23;20017;-81
2022/10/22 18:33:10;;;;;;;11.48;4.78;;;;;;;;;;6152450;23;20022;-81
2022/10/22 18:35:36;;;;;;;14.85;5.47;;;;;;;;;;6151792;23;20192;-82
2022/10/22 18:38:02;;;;;;;18.98;9.77;;;;;;;;;;6150193;23;20028;-83
2022/10/22 18:40:29;;;;;;;32.45;15.95;;;;;;;;;;6149544;23;20013;-81
2022/10/22 18:42:55;;;;;;;32.17;14.48;;;;;;;;;;6125511;23;20017;-80
2022/10/22 18:45:21;;;;;;;24.15;10.40;;;;;;;;;;6149494;23;20096;-80
2022/10/22 18:47:47;;;;;;;19.02;9.65;;;;;;;;;;6148619;23;20057;-75
2022/10/22 18:50:15;;;;;;;11.70;6.43;;;;;;;;;;6144306;23;20023;-75
2022/10/22 18:52:41;;;;;;;20.83;6.60;;;;;;;;;;6146676;23;20021;-75
2022/10/22 18:55:07;;;;;;;16.13;6.15;;;;;;;;;;6122639;23;20315;-75
2022/10/22 18:57:33;;;;;;;15.05;6.82;;;;;;;;;;6147462;23;20313;-75
2022/10/22 19:00:00;;;;;;;16.50;5.55;;;;;;;;;;6145271;23;20028;-75
2022/10/22 19:02:26;;;;;;;17.00;5.32;;;;;;;;;;6146604;23;20031;-75
2022/10/22 19:04:52;;;;;;;15.73;6.47;;;;;;;;;;6146738;23;20029;-75
2022/10/22 19:07:23;;;;;;;9.77;4.85;;;;;;;;;;6145627;23;20027;-75
2022/10/22 19:09:49;;;;;;;22.00;6.47;;;;;;;;;;6145653;23;20050;-75
2022/10/22 19:12:15;;;;;;;15.07;6.00;;;;;;;;;;6121894;23;20049;-75
2022/10/22 19:14:41;;;;;;;17.85;5.95;;;;;;;;;;6147192;23;20371;-74
2022/10/22 19:17:08;;;;;;;14.10;6.75;;;;;;;;;;6146806;23;20522;-74
2022/10/22 19:19:34;;;;;;;12.77;6.03;;;;;;;;;;6146440;23;20025;-75
2022/10/22 19:22:00;;;;;;;15.55;6.13;;;;;;;;;;6123326;23;20075;-74
2022/10/22 19:24:28;;;;;;;14.73;5.85;;;;;;;;;;6122181;23;20610;-74
2022/10/22 19:26:54;;;;;;;11.82;6.05;;;;;;;;;;6120523;23;20452;-75
2022/10/22 19:29:20;;;;;;;12.57;6.50;;;;;;;;;;6145922;23;20029;-75
2022/10/22 19:31:47;;;;;;;15.30;6.25;;;;;;;;;;6145373;23;20092;-75
2022/10/22 19:34:13;;;;;;;11.50;5.78;;;;;;;;;;6141897;23;20022;-75
2022/10/22 19:36:40;;;;;;;11.73;5.75;;;;;;;;;;6144443;23;20021;-75
2022/10/22 19:39:06;;;;;;;14.57;5.82;;;;;;;;;;6144725;23;20335;-75
2022/10/22 19:41:32;;;;;;;16.23;7.97;;;;;;;;;;6145452;23;20021;-75
2022/10/22 19:43:59;;;;;;;25.35;10.13;;;;;;;;;;6120148;23;20453;-75
2022/10/22 19:46:26;;;;;;;18.30;9.63;;;;;;;;;;6144765;23;20013;-76
2022/10/22 19:48:55;;;;;;;23.17;9.02;;;;;;;;;;6145580;23;20048;-75
2022/10/22 19:51:22;;;;;;;19.27;8.82;;;;;;;;;;6145065;23;20099;-75
2022/10/22 19:53:48;;;;;;;18.48;6.75;;;;;;;;;;6120619;23;20474;-75
2022/10/22 19:56:17;;;;;;;11.32;6.63;;;;;;;;;;6145629;23;20013;-75
2022/10/22 19:58:43;;;;;;;16.65;7.18;;;;;;;;;;6096059;23;20021;-75
2022/10/22 20:01:10;;;;;;;14.00;5.88;;;;;;;;;;6144854;23;20537;-75
2022/10/22 20:03:37;;;;;;;11.48;5.18;;;;;;;;;;6145032;23;20072;-75
2022/10/22 20:06:04;;;;;;;21.48;6.78;;;;;;;;;;6145203;23;20014;-75
2022/10/22 20:08:30;;;;;;;17.85;5.97;;;;;;;;;;6120436;23;20440;-75
2022/10/22 20:10:57;;;;;;;13.52;6.95;;;;;;;;;;6145062;23;20098;-75
2022/10/22 20:13:23;;;;;;;18.23;6.95;;;;;;;;;;6145210;23;20029;-75
2022/10/22 20:15:52;;;;;;;15.98;7.10;;;;;;;;;;6071861;23;20511;-75
2022/10/22 20:18:18;;;;;;;13.20;5.78;;;;;;;;;;6096712;23;20454;-75
2022/10/22 20:20:45;;;;;;;22.85;7.55;;;;;;;;;;6145390;23;20029;-75
2022/10/22 20:23:11;;;;;;;17.40;9.05;;;;;;;;;;6144722;23;20502;-75
2022/10/22 20:25:41;;;;;;;16.05;7.43;;;;;;;;;;6143867;23;20028;-75
2022/10/22 20:28:07;;;;;;;15.77;7.90;;;;;;;;;;6144890;23;20455;-75
2022/10/22 20:30:33;;;;;;;14.90;7.30;;;;;;;;;;6143187;23;20347;-75
2022/10/22 20:32:59;;;;;;;17.95;7.63;;;;;;;;;;6143644;23;20013;-75
2022/10/22 20:35:25;;;;;;;15.05;8.18;;;;;;;;;;6096765;23;20014;-75
2022/10/22 20:37:51;;;;;;;13.27;7.05;;;;;;;;;;6148170;23;20071;-75
2022/10/22 20:40:18;;;;;;;20.98;7.20;;;;;;;;;;6121983;23;20025;-75
2022/10/22 20:42:46;;;;;;;17.88;6.80;;;;;;;;;;6145964;23;20073;-75
2022/10/22 20:45:12;;;;;;;15.02;7.60;;;;;;;;;;6096102;23;20025;-76
2022/10/22 20:47:38;;;;;;;11.63;5.32;;;;;;;;;;6122613;23;20451;-75
2022/10/22 20:50:04;;;;;;;11.15;6.13;;;;;;;;;;6147018;23;20017;-75
2022/10/22 20:52:30;;;;;;;14.52;5.85;;;;;;;;;;6146982;23;20013;-76
2022/10/22 20:54:56;;;;;;;20.98;7.07;;;;;;;;;;6149518;23;20014;-75
2022/10/22 20:57:22;;;;;;;17.05;5.60;;;;;;;;;;6149303;23;20349;-75
2022/10/22 20:59:49;;;;;;;17.13;6.55;;;;;;;;;;6149250;23;20017;-75
2022/10/22 21:02:15;;;;;;;11.68;7.35;;;;;;;;;;6148928;23;20017;-76
2022/10/22 21:04:41;;;;;;;13.63;7.00;;;;;;;;;;6125142;23;20088;-75
2022/10/22 21:07:07;;;;;;;19.65;8.05;;;;;;;;;;6124384;23;20028;-75
2022/10/22 21:09:33;;;;;;;17.70;8.45;;;;;;;;;;6124739;23;20013;-76
2022/10/22 21:12:02;;;;;;;23.80;9.02;;;;;;;;;;6147265;23;20014;-75
2022/10/22 21:14:28;;;;;;;18.48;8.27;;;;;;;;;;6125391;23;20427;-75
2022/10/22 21:16:55;;;;;;;14.77;7.65;;;;;;;;;;6124692;23;20017;-76
2022/10/22 21:19:21;;;;;;;19.45;7.65;;;;;;;;;;6146455;23;20168;-76
2022/10/22 21:21:48;;;;;;;19.08;6.80;;;;;;;;;;6149118;23;20022;-76
2022/10/22 21:24:14;;;;;;;14.07;6.82;;;;;;;;;;6123286;23;20017;-76
2022/10/22 21:26:42;;;;;;;11.90;5.22;;;;;;;;;;6123608;23;20017;-76
2022/10/22 21:29:09;;;;;;;18.83;7.65;;;;;;;;;;6123745;23;20014;-76
2022/10/22 21:31:35;;;;;;;15.65;6.50;;;;;;;;;;6123038;23;20049;-76
2022/10/22 21:34:01;;;;;;;14.80;5.43;;;;;;;;;;6148066;23;20017;-76
2022/10/22 21:36:28;;;;;;;9.30;5.57;;;;;;;;;;6124640;23;20009;-76
2022/10/22 21:38:54;;;;;;;18.83;6.72;;;;;;;;;;6149697;23;20013;-76
2022/10/22 21:41:21;;;;;;;15.00;5.55;;;;;;;;;;6149207;23;20068;-76
2022/10/22 21:43:47;;;;;;;18.73;6.38;;;;;;;;;;6149019;23;20048;-76
2022/10/22 21:46:14;;;;;;;12.13;6.50;;;;;;;;;;6149008;23;20014;-75
2022/10/22 21:48:40;;;;;;;16.50;6.28;;;;;;;;;;6148411;23;20093;-76
2022/10/22 21:51:11;;;;;;;16.15;7.30;;;;;;;;;;6148522;23;20016;-76
2022/10/22 21:53:38;;;;;;;17.00;6.95;;;;;;;;;;6151358;23;20629;-76
2022/10/22 21:56:04;;;;;;;16.58;6.90;;;;;;;;;;6150112;23;20015;-76
2022/10/22 21:58:30;;;;;;;17.90;7.38;;;;;;;;;;6100885;23;20436;-76
2022/10/22 22:00:57;;;;;;;16.48;8.55;;;;;;;;;;6150671;23;20579;-75
2022/10/22 22:03:24;;;;;;;28.52;11.18;;;;;;;;;;6151435;23;20017;-76
2022/10/22 22:05:50;;;;;;;20.67;10.20;;;;;;;;;;6150902;23;20444;-76
2022/10/22 22:08:16;;;;;;;19.73;10.10;;;;;;;;;;6150869;23;20049;-76
2022/10/22 22:10:42;;;;;;;21.38;7.35;;;;;;;;;;6151163;23;20025;-76
2022/10/22 22:13:08;;;;;;;17.13;7.15;;;;;;;;;;6151107;23;20355;-76
2022/10/22 22:15:34;;;;;;;25.10;8.60;;;;;;;;;;6126212;23;20009;-76
2022/10/22 22:18:01;;;;;;;16.70;6.93;;;;;;;;;;6149718;23;20014;-75
2022/10/22 22:20:27;;;;;;;18.20;6.80;;;;;;;;;;6149754;23;20470;-76
2022/10/22 22:22:53;;;;;;;15.75;7.18;;;;;;;;;;6149229;23;20029;-76
2022/10/22 22:25:19;;;;;;;15.23;7.07;;;;;;;;;;6124700;23;20100;-75
2022/10/22 22:27:45;;;;;;;13.32;6.50;;;;;;;;;;6149702;23;20343;-76
2022/10/22 22:30:11;;;;;;;19.95;7.25;;;;;;;;;;6149237;23;20017;-75
2022/10/22 22:32:38;;;;;;;16.92;7.63;;;;;;;;;;6149168;23;20088;-76
2022/10/22 22:35:04;;;;;;;17.00;6.78;;;;;;;;;;6125042;23;20014;-75
2022/10/22 22:37:30;;;;;;;13.43;6.75;;;;;;;;;;6149376;23;20014;-75
2022/10/22 22:39:56;;;;;;;11.10;7.00;;;;;;;;;;6149206;23;20017;-75
2022/10/22 22:42:22;;;;;;;19.58;7.90;;;;;;;;;;6149397;23;20021;-76
2022/10/22 22:44:48;;;;;;;15.68;8.45;;;;;;;;;;6149394;23;20021;-76
2022/10/22 22:47:14;;;;;;;17.05;8.70;;;;;;;;;;6100104;23;20097;-75
2022/10/22 22:49:40;;;;;;;11.85;7.63;;;;;;;;;;6124805;23;20009;-76
2022/10/22 22:52:06;;;;;;;18.08;8.02;;;;;;;;;;6125403;23;20076;-76
2022/10/22 22:54:32;;;;;;;17.88;7.25;;;;;;;;;;6100138;23;20024;-76
2022/10/22 22:56:58;;;;;;;15.05;9.13;;;;;;;;;;6148685;23;20113;-76
2022/10/22 22:59:24;;;;;;;12.55;7.85;;;;;;;;;;6125014;23;20018;-76
2022/10/22 23:01:50;;;;;;;15.80;9.30;;;;;;;;;;6149044;23;20014;-75
2022/10/22 23:04:21;;;;;;;14.45;8.60;;;;;;;;;;6148757;23;20021;-76
2022/10/22 23:06:48;;;;;;;11.05;7.57;;;;;;;;;;6149426;23;20013;-75
2022/10/22 23:09:14;;;;;;;15.73;8.38;;;;;;;;;;6149578;23;20044;-75
2022/10/22 23:11:41;;;;;;;15.20;8.32;;;;;;;;;;6150439;23;20020;-75
2022/10/22 23:14:08;;;;;;;19.38;8.20;;;;;;;;;;6150371;23;20392;-76
2022/10/22 23:16:38;;;;;;;14.95;8.25;;;;;;;;;;6150967;23;20021;-75
2022/10/22 23:19:05;;;;;;;22.33;9.13;;;;;;;;;;6150061;23;20018;-75
2022/10/22 23:21:32;;;;;;;19.25;9.05;;;;;;;;;;6126214;23;20017;-75
2022/10/22 23:24:00;;;;;;;15.52;8.65;;;;;;;;;;6151051;23;20092;-75
2022/10/22 23:26:27;;;;;;;19.50;8.90;;;;;;;;;;6125761;23;20016;-75
2022/10/22 23:28:53;;;;;;;17.70;8.55;;;;;;;;;;6147254;23;20013;-75
2022/10/22 23:31:20;;;;;;;15.05;9.00;;;;;;;;;;6147936;23;20013;-76
2022/10/22 23:33:46;;;;;;;14.27;9.15;;;;;;;;;;6098607;23;20013;-76
2022/10/22 23:36:12;;;;;;;17.80;10.05;;;;;;;;;;6149930;23;20013;-76
2022/10/22 23:38:39;;;;;;;17.55;8.80;;;;;;;;;;6150045;23;20018;-75
2022/10/22 23:41:05;;;;;;;16.55;8.75;;;;;;;;;;6150133;23;20471;-75
2022/10/22 23:43:34;;;;;;;21.65;8.60;;;;;;;;;;6149622;23;20029;-75
2022/10/22 23:46:01;;;;;;;23.33;8.70;;;;;;;;;;6124484;23;20140;-75
2022/10/22 23:48:27;;;;;;;16.50;8.45;;;;;;;;;;6149694;23;20049;-75
2022/10/22 23:50:53;;;;;;;17.42;8.10;;;;;;;;;;6149915;23;20294;-75
2022/10/22 23:53:19;;;;;;;15.25;9.25;;;;;;;;;;6149569;23;20017;-75
2022/10/22 23:55:45;;;;;;;16.77;9.25;;;;;;;;;;6150113;23;20017;-75
2022/10/22 23:58:11;;;;;;;18.73;8.80;;;;;;;;;;6125524;23;20014;-75
